Airport View

Enter AWOS ICAO identifier for current METAR.

ex. KFNL

KACB 202155Z AUTO 07003KT 10SM OVC100 08/M01 A3022 RMK AO2 T00791013

20 Oct 2020 22:16

Frequency: 119.275

Phone: 231-533-8941

Other Area AWOS: KCVX - KGLR - KTVC - KGOV

TAF KTVC 201729Z 2018/2118 10006KT P6SM SCT040 BKN150 FM210100 12007KT 6SM -RA BR OVC045 FM210400 12008KT 3SM -RA BR OVC011 FM210600 11005KT 3SM -RA BR OVC005 FM211000 19006KT P6SM VCSH OVC006 FM211200 24010G18KT P6SM OVC012